sensor_id;sensor_type;location;lat;lon;timestamp;P1;durP1;ratioP1;P2;durP2;ratioP2
50815;SDS011;39717;47.324;8.788;2022-10-22T00:01:36;8.27;;;4.60;;
50815;SDS011;39717;47.324;8.788;2022-10-22T00:04:03;9.97;;;4.80;;
50815;SDS011;39717;47.324;8.788;2022-10-22T00:06:29;6.90;;;4.53;;
50815;SDS011;39717;47.324;8.788;2022-10-22T00:08:55;10.00;;;5.43;;
50815;SDS011;39717;47.324;8.788;2022-10-22T00:11:21;7.87;;;4.90;;
50815;SDS011;39717;47.324;8.788;2022-10-22T00:13:47;7.57;;;5.23;;
50815;SDS011;39717;47.324;8.788;2022-10-22T00:16:14;7.33;;;4.90;;
50815;SDS011;39717;47.324;8.788;2022-10-22T00:18:41;16.47;;;4.90;;
50815;SDS011;39717;47.324;8.788;2022-10-22T00:21:08;8.43;;;4.63;;
50815;SDS011;39717;47.324;8.788;2022-10-22T00:23:35;4.27;;;3.20;;
50815;SDS011;39717;47.324;8.788;2022-10-22T00:26:05;3.63;;;3.27;;
50815;SDS011;39717;47.324;8.788;2022-10-22T00:28:31;5.10;;;3.70;;
50815;SDS011;39717;47.324;8.788;2022-10-22T00:30:59;6.03;;;3.50;;
50815;SDS011;39717;47.324;8.788;2022-10-22T00:33:26;3.73;;;3.10;;
50815;SDS011;39717;47.324;8.788;2022-10-22T00:35:52;5.10;;;3.50;;
50815;SDS011;39717;47.324;8.788;2022-10-22T00:38:20;4.90;;;3.47;;
50815;SDS011;39717;47.324;8.788;2022-10-22T00:40:46;4.57;;;3.70;;
50815;SDS011;39717;47.324;8.788;2022-10-22T00:43:14;4.57;;;3.33;;
50815;SDS011;39717;47.324;8.788;2022-10-22T00:45:41;3.80;;;2.83;;
50815;SDS011;39717;47.324;8.788;2022-10-22T00:48:10;4.67;;;3.03;;
50815;SDS011;39717;47.324;8.788;2022-10-22T00:53:34;7.10;;;4.17;;
50815;SDS011;39717;47.324;8.788;2022-10-22T00:56:01;5.73;;;3.93;;
50815;SDS011;39717;47.324;8.788;2022-10-22T00:58:30;7.80;;;3.93;;
50815;SDS011;39717;47.324;8.788;2022-10-22T01:00:58;6.03;;;4.30;;
50815;SDS011;39717;47.324;8.788;2022-10-22T01:03:25;8.90;;;4.60;;
50815;SDS011;39717;47.324;8.788;2022-10-22T01:05:58;6.33;;;4.10;;
50815;SDS011;39717;47.324;8.788;2022-10-22T01:08:38;6.53;;;4.57;;
50815;SDS011;39717;47.324;8.788;2022-10-22T01:14:02;8.93;;;4.53;;
50815;SDS011;39717;47.324;8.788;2022-10-22T01:19:06;6.50;;;4.77;;
50815;SDS011;39717;47.324;8.788;2022-10-22T01:21:44;12.33;;;5.20;;
50815;SDS011;39717;47.324;8.788;2022-10-22T01:24:19;7.90;;;4.97;;
50815;SDS011;39717;47.324;8.788;2022-10-22T01:29:25;6.57;;;4.97;;
50815;SDS011;39717;47.324;8.788;2022-10-22T01:31:55;11.77;;;6.00;;
50815;SDS011;39717;47.324;8.788;2022-10-22T01:34:23;11.23;;;5.97;;
50815;SDS011;39717;47.324;8.788;2022-10-22T01:36:52;13.27;;;7.10;;
50815;SDS011;39717;47.324;8.788;2022-10-22T01:39:20;10.07;;;5.93;;
50815;SDS011;39717;47.324;8.788;2022-10-22T01:41:47;8.27;;;4.90;;
50815;SDS011;39717;47.324;8.788;2022-10-22T01:44:33;8.63;;;5.23;;
50815;SDS011;39717;47.324;8.788;2022-10-22T01:49:26;9.63;;;4.87;;
50815;SDS011;39717;47.324;8.788;2022-10-22T01:54:38;5.27;;;4.00;;
50815;SDS011;39717;47.324;8.788;2022-10-22T01:57:12;7.03;;;4.27;;
50815;SDS011;39717;47.324;8.788;2022-10-22T02:04:57;3.20;;;2.30;;
50815;SDS011;39717;47.324;8.788;2022-10-22T02:07:26;4.80;;;3.10;;
50815;SDS011;39717;47.324;8.788;2022-10-22T02:09:53;5.13;;;3.20;;
50815;SDS011;39717;47.324;8.788;2022-10-22T02:12:21;5.10;;;3.03;;
50815;SDS011;39717;47.324;8.788;2022-10-22T02:14:48;3.90;;;2.40;;
50815;SDS011;39717;47.324;8.788;2022-10-22T02:17:17;3.60;;;2.07;;
50815;SDS011;39717;47.324;8.788;2022-10-22T02:24:42;3.10;;;2.40;;
50815;SDS011;39717;47.324;8.788;2022-10-22T02:32:41;3.50;;;2.33;;
50815;SDS011;39717;47.324;8.788;2022-10-22T02:35:09;2.63;;;2.20;;
50815;SDS011;39717;47.324;8.788;2022-10-22T02:37:36;4.37;;;2.30;;
50815;SDS011;39717;47.324;8.788;2022-10-22T02:40:03;3.60;;;2.40;;
50815;SDS011;39717;47.324;8.788;2022-10-22T02:42:29;3.93;;;2.17;;
50815;SDS011;39717;47.324;8.788;2022-10-22T02:44:56;3.90;;;2.37;;
50815;SDS011;39717;47.324;8.788;2022-10-22T02:47:22;4.13;;;2.27;;
50815;SDS011;39717;47.324;8.788;2022-10-22T02:49:48;6.23;;;2.67;;
50815;SDS011;39717;47.324;8.788;2022-10-22T02:52:14;4.33;;;2.30;;
50815;SDS011;39717;47.324;8.788;2022-10-22T02:54:40;7.10;;;2.40;;
50815;SDS011;39717;47.324;8.788;2022-10-22T02:57:07;4.30;;;2.37;;
50815;SDS011;39717;47.324;8.788;2022-10-22T02:59:34;3.83;;;2.23;;
50815;SDS011;39717;47.324;8.788;2022-10-22T03:02:00;3.10;;;2.60;;
50815;SDS011;39717;47.324;8.788;2022-10-22T03:04:26;2.63;;;2.43;;
50815;SDS011;39717;47.324;8.788;2022-10-22T03:06:52;4.90;;;2.77;;
50815;SDS011;39717;47.324;8.788;2022-10-22T03:09:20;4.37;;;2.70;;
50815;SDS011;39717;47.324;8.788;2022-10-22T03:11:46;6.57;;;3.20;;
50815;SDS011;39717;47.324;8.788;2022-10-22T03:14:12;4.37;;;2.53;;
50815;SDS011;39717;47.324;8.788;2022-10-22T03:16:38;7.93;;;2.70;;
50815;SDS011;39717;47.324;8.788;2022-10-22T03:19:04;3.57;;;2.50;;
50815;SDS011;39717;47.324;8.788;2022-10-22T03:21:52;3.80;;;2.00;;
50815;SDS011;39717;47.324;8.788;2022-10-22T03:24:18;3.73;;;2.10;;
50815;SDS011;39717;47.324;8.788;2022-10-22T03:26:47;5.80;;;2.50;;
50815;SDS011;39717;47.324;8.788;2022-10-22T03:29:15;3.77;;;2.63;;
50815;SDS011;39717;47.324;8.788;2022-10-22T03:31:41;4.03;;;2.70;;
50815;SDS011;39717;47.324;8.788;2022-10-22T03:34:08;3.90;;;2.20;;
50815;SDS011;39717;47.324;8.788;2022-10-22T03:36:36;6.40;;;2.67;;
50815;SDS011;39717;47.324;8.788;2022-10-22T03:39:03;3.87;;;2.60;;
50815;SDS011;39717;47.324;8.788;2022-10-22T03:41:30;4.27;;;2.40;;
50815;SDS011;39717;47.324;8.788;2022-10-22T03:43:57;7.63;;;2.90;;
50815;SDS011;39717;47.324;8.788;2022-10-22T03:46:24;9.27;;;2.90;;
50815;SDS011;39717;47.324;8.788;2022-10-22T03:48:52;6.63;;;3.47;;
50815;SDS011;39717;47.324;8.788;2022-10-22T03:51:18;4.03;;;2.90;;
50815;SDS011;39717;47.324;8.788;2022-10-22T03:53:44;4.67;;;2.90;;
50815;SDS011;39717;47.324;8.788;2022-10-22T03:56:10;4.43;;;3.10;;
50815;SDS011;39717;47.324;8.788;2022-10-22T03:58:38;5.17;;;2.77;;
50815;SDS011;39717;47.324;8.788;2022-10-22T04:01:05;5.00;;;3.00;;
50815;SDS011;39717;47.324;8.788;2022-10-22T04:03:33;9.37;;;3.83;;
50815;SDS011;39717;47.324;8.788;2022-10-22T04:06:00;6.03;;;3.00;;
50815;SDS011;39717;47.324;8.788;2022-10-22T04:08:26;5.03;;;2.93;;
50815;SDS011;39717;47.324;8.788;2022-10-22T04:10:53;3.77;;;2.97;;
50815;SDS011;39717;47.324;8.788;2022-10-22T04:13:20;6.77;;;3.20;;
50815;SDS011;39717;47.324;8.788;2022-10-22T04:15:46;7.57;;;3.13;;
50815;SDS011;39717;47.324;8.788;2022-10-22T04:18:13;6.30;;;3.50;;
50815;SDS011;39717;47.324;8.788;2022-10-22T04:20:42;8.33;;;3.50;;
50815;SDS011;39717;47.324;8.788;2022-10-22T04:23:11;3.80;;;3.00;;
50815;SDS011;39717;47.324;8.788;2022-10-22T04:25:37;6.43;;;3.83;;
50815;SDS011;39717;47.324;8.788;2022-10-22T04:30:34;5.97;;;3.43;;
50815;SDS011;39717;47.324;8.788;2022-10-22T04:33:00;6.97;;;4.37;;
50815;SDS011;39717;47.324;8.788;2022-10-22T04:35:26;9.03;;;4.00;;
50815;SDS011;39717;47.324;8.788;2022-10-22T04:37:53;6.83;;;3.50;;
50815;SDS011;39717;47.324;8.788;2022-10-22T04:40:19;9.97;;;4.13;;
50815;SDS011;39717;47.324;8.788;2022-10-22T04:42:46;9.60;;;4.70;;
50815;SDS011;39717;47.324;8.788;2022-10-22T04:45:12;7.70;;;3.47;;
50815;SDS011;39717;47.324;8.788;2022-10-22T04:47:43;6.70;;;3.47;;
50815;SDS011;39717;47.324;8.788;2022-10-22T04:50:09;3.90;;;2.47;;
50815;SDS011;39717;47.324;8.788;2022-10-22T04:52:35;3.53;;;2.47;;
50815;SDS011;39717;47.324;8.788;2022-10-22T04:57:31;4.77;;;2.47;;
50815;SDS011;39717;47.324;8.788;2022-10-22T04:59:57;1.63;;;1.40;;
50815;SDS011;39717;47.324;8.788;2022-10-22T05:02:23;1.63;;;1.20;;
50815;SDS011;39717;47.324;8.788;2022-10-22T05:04:50;1.50;;;1.40;;
50815;SDS011;39717;47.324;8.788;2022-10-22T05:07:17;3.40;;;1.60;;
50815;SDS011;39717;47.324;8.788;2022-10-22T05:09:43;1.90;;;1.20;;
50815;SDS011;39717;47.324;8.788;2022-10-22T05:12:09;1.80;;;1.30;;
50815;SDS011;39717;47.324;8.788;2022-10-22T05:14:36;2.77;;;1.10;;
50815;SDS011;39717;47.324;8.788;2022-10-22T05:17:03;1.83;;;1.10;;
50815;SDS011;39717;47.324;8.788;2022-10-22T05:19:30;1.23;;;1.10;;
50815;SDS011;39717;47.324;8.788;2022-10-22T05:21:57;1.77;;;1.20;;
50815;SDS011;39717;47.324;8.788;2022-10-22T05:27:14;1.97;;;1.40;;
50815;SDS011;39717;47.324;8.788;2022-10-22T05:29:40;1.23;;;1.10;;
50815;SDS011;39717;47.324;8.788;2022-10-22T05:32:07;1.53;;;1.00;;
50815;SDS011;39717;47.324;8.788;2022-10-22T05:34:34;2.03;;;1.10;;
50815;SDS011;39717;47.324;8.788;2022-10-22T05:37:01;3.80;;;1.50;;
50815;SDS011;39717;47.324;8.788;2022-10-22T05:39:33;4.40;;;1.20;;
50815;SDS011;39717;47.324;8.788;2022-10-22T05:42:04;2.17;;;1.10;;
50815;SDS011;39717;47.324;8.788;2022-10-22T05:44:30;0.90;;;0.80;;
50815;SDS011;39717;47.324;8.788;2022-10-22T05:46:57;1.10;;;0.83;;
50815;SDS011;39717;47.324;8.788;2022-10-22T05:49:23;2.30;;;1.10;;
50815;SDS011;39717;47.324;8.788;2022-10-22T05:51:55;2.23;;;1.13;;
50815;SDS011;39717;47.324;8.788;2022-10-22T05:54:21;1.67;;;0.83;;
50815;SDS011;39717;47.324;8.788;2022-10-22T05:56:47;1.93;;;1.00;;
50815;SDS011;39717;47.324;8.788;2022-10-22T05:59:14;1.93;;;1.10;;
50815;SDS011;39717;47.324;8.788;2022-10-22T06:01:40;1.77;;;0.90;;
50815;SDS011;39717;47.324;8.788;2022-10-22T06:04:09;1.43;;;1.00;;
50815;SDS011;39717;47.324;8.788;2022-10-22T06:06:41;2.20;;;0.97;;
50815;SDS011;39717;47.324;8.788;2022-10-22T06:11:44;1.13;;;0.80;;
50815;SDS011;39717;47.324;8.788;2022-10-22T06:14:10;2.00;;;1.03;;
50815;SDS011;39717;47.324;8.788;2022-10-22T06:16:38;2.40;;;1.00;;
50815;SDS011;39717;47.324;8.788;2022-10-22T06:19:04;2.40;;;0.90;;
50815;SDS011;39717;47.324;8.788;2022-10-22T06:21:31;1.50;;;1.00;;
50815;SDS011;39717;47.324;8.788;2022-10-22T06:23:58;1.97;;;1.10;;
50815;SDS011;39717;47.324;8.788;2022-10-22T06:26:24;3.80;;;1.03;;
50815;SDS011;39717;47.324;8.788;2022-10-22T06:28:51;4.00;;;1.10;;
50815;SDS011;39717;47.324;8.788;2022-10-22T06:31:18;1.67;;;0.90;;
50815;SDS011;39717;47.324;8.788;2022-10-22T06:33:44;1.50;;;1.00;;
50815;SDS011;39717;47.324;8.788;2022-10-22T06:36:11;0.87;;;0.87;;
50815;SDS011;39717;47.324;8.788;2022-10-22T06:38:39;1.17;;;1.10;;
50815;SDS011;39717;47.324;8.788;2022-10-22T06:41:07;1.73;;;1.10;;
50815;SDS011;39717;47.324;8.788;2022-10-22T06:43:41;2.63;;;1.20;;
50815;SDS011;39717;47.324;8.788;2022-10-22T06:46:14;2.50;;;1.57;;
50815;SDS011;39717;47.324;8.788;2022-10-22T06:48:42;2.50;;;1.47;;
50815;SDS011;39717;47.324;8.788;2022-10-22T06:51:11;1.63;;;1.27;;
50815;SDS011;39717;47.324;8.788;2022-10-22T06:53:38;2.87;;;1.33;;
50815;SDS011;39717;47.324;8.788;2022-10-22T06:56:06;2.10;;;1.90;;
50815;SDS011;39717;47.324;8.788;2022-10-22T06:58:33;1.43;;;1.30;;
50815;SDS011;39717;47.324;8.788;2022-10-22T07:01:03;1.63;;;1.23;;
50815;SDS011;39717;47.324;8.788;2022-10-22T07:03:30;1.33;;;1.23;;
50815;SDS011;39717;47.324;8.788;2022-10-22T07:06:04;1.80;;;1.20;;
50815;SDS011;39717;47.324;8.788;2022-10-22T07:08:31;1.40;;;1.30;;
50815;SDS011;39717;47.324;8.788;2022-10-22T07:11:09;1.93;;;1.30;;
50815;SDS011;39717;47.324;8.788;2022-10-22T07:13:36;1.50;;;1.33;;
50815;SDS011;39717;47.324;8.788;2022-10-22T07:16:02;1.27;;;1.10;;
50815;SDS011;39717;47.324;8.788;2022-10-22T07:18:29;1.20;;;1.10;;
50815;SDS011;39717;47.324;8.788;2022-10-22T07:20:56;1.40;;;1.30;;
50815;SDS011;39717;47.324;8.788;2022-10-22T07:23:23;1.20;;;1.10;;
50815;SDS011;39717;47.324;8.788;2022-10-22T07:25:49;1.30;;;1.20;;
50815;SDS011;39717;47.324;8.788;2022-10-22T07:28:15;1.40;;;1.00;;
50815;SDS011;39717;47.324;8.788;2022-10-22T07:30:41;1.27;;;1.17;;
50815;SDS011;39717;47.324;8.788;2022-10-22T07:33:09;1.57;;;1.10;;
50815;SDS011;39717;47.324;8.788;2022-10-22T07:35:36;1.00;;;0.90;;
50815;SDS011;39717;47.324;8.788;2022-10-22T07:38:04;1.30;;;1.20;;
50815;SDS011;39717;47.324;8.788;2022-10-22T07:40:31;1.13;;;1.00;;
50815;SDS011;39717;47.324;8.788;2022-10-22T07:42:59;1.30;;;1.00;;
50815;SDS011;39717;47.324;8.788;2022-10-22T07:45:25;1.03;;;0.93;;
50815;SDS011;39717;47.324;8.788;2022-10-22T07:47:53;0.90;;;0.90;;
50815;SDS011;39717;47.324;8.788;2022-10-22T07:50:19;1.23;;;1.13;;
50815;SDS011;39717;47.324;8.788;2022-10-22T07:52:47;1.63;;;0.90;;
50815;SDS011;39717;47.324;8.788;2022-10-22T07:55:14;2.13;;;1.30;;
50815;SDS011;39717;47.324;8.788;2022-10-22T07:57:40;2.43;;;1.17;;
50815;SDS011;39717;47.324;8.788;2022-10-22T08:00:06;1.53;;;1.07;;
50815;SDS011;39717;47.324;8.788;2022-10-22T08:05:03;6.73;;;2.30;;
50815;SDS011;39717;47.324;8.788;2022-10-22T08:07:29;3.53;;;2.47;;
50815;SDS011;39717;47.324;8.788;2022-10-22T08:09:57;4.00;;;2.60;;
50815;SDS011;39717;47.324;8.788;2022-10-22T08:12:26;3.77;;;3.10;;
50815;SDS011;39717;47.324;8.788;2022-10-22T08:14:52;4.20;;;3.00;;
50815;SDS011;39717;47.324;8.788;2022-10-22T08:17:18;5.80;;;3.40;;
50815;SDS011;39717;47.324;8.788;2022-10-22T08:22:13;3.07;;;2.73;;
50815;SDS011;39717;47.324;8.788;2022-10-22T08:24:39;4.93;;;2.40;;
50815;SDS011;39717;47.324;8.788;2022-10-22T08:27:13;4.57;;;2.90;;
50815;SDS011;39717;47.324;8.788;2022-10-22T08:29:40;3.07;;;1.63;;
50815;SDS011;39717;47.324;8.788;2022-10-22T08:32:06;1.73;;;1.53;;
50815;SDS011;39717;47.324;8.788;2022-10-22T08:34:35;3.67;;;1.57;;
50815;SDS011;39717;47.324;8.788;2022-10-22T08:37:01;1.67;;;1.47;;
50815;SDS011;39717;47.324;8.788;2022-10-22T08:39:28;1.30;;;1.20;;
50815;SDS011;39717;47.324;8.788;2022-10-22T08:49:37;1.97;;;1.60;;
50815;SDS011;39717;47.324;8.788;2022-10-22T08:52:07;1.20;;;1.10;;
50815;SDS011;39717;47.324;8.788;2022-10-22T08:57:34;0.40;;;0.40;;
50815;SDS011;39717;47.324;8.788;2022-10-22T09:03:06;0.63;;;0.63;;
50815;SDS011;39717;47.324;8.788;2022-10-22T09:08:03;1.70;;;1.20;;
50815;SDS011;39717;47.324;8.788;2022-10-22T09:10:31;1.23;;;1.13;;
50815;SDS011;39717;47.324;8.788;2022-10-22T09:13:00;0.73;;;0.70;;
50815;SDS011;39717;47.324;8.788;2022-10-22T09:15:28;0.77;;;0.77;;
50815;SDS011;39717;47.324;8.788;2022-10-22T09:20:38;0.90;;;0.50;;
50815;SDS011;39717;47.324;8.788;2022-10-22T09:25:44;1.03;;;0.73;;
50815;SDS011;39717;47.324;8.788;2022-10-22T09:28:13;0.83;;;0.50;;
50815;SDS011;39717;47.324;8.788;2022-10-22T09:30:40;0.63;;;0.40;;
50815;SDS011;39717;47.324;8.788;2022-10-22T09:33:18;0.50;;;0.50;;
50815;SDS011;39717;47.324;8.788;2022-10-22T09:35:57;0.60;;;0.60;;
50815;SDS011;39717;47.324;8.788;2022-10-22T09:38:38;0.43;;;0.43;;
50815;SDS011;39717;47.324;8.788;2022-10-22T09:41:04;0.97;;;0.50;;
50815;SDS011;39717;47.324;8.788;2022-10-22T09:43:31;0.40;;;0.40;;
50815;SDS011;39717;47.324;8.788;2022-10-22T09:46:02;0.90;;;0.60;;
50815;SDS011;39717;47.324;8.788;2022-10-22T09:48:33;0.73;;;0.60;;
50815;SDS011;39717;47.324;8.788;2022-10-22T09:53:30;0.60;;;0.60;;
50815;SDS011;39717;47.324;8.788;2022-10-22T09:55:58;0.40;;;0.40;;
50815;SDS011;39717;47.324;8.788;2022-10-22T09:58:24;0.80;;;0.50;;
50815;SDS011;39717;47.324;8.788;2022-10-22T10:00:59;0.40;;;0.40;;
50815;SDS011;39717;47.324;8.788;2022-10-22T10:03:27;0.73;;;0.60;;
50815;SDS011;39717;47.324;8.788;2022-10-22T10:05:54;1.60;;;0.53;;
50815;SDS011;39717;47.324;8.788;2022-10-22T10:08:22;1.23;;;0.50;;
50815;SDS011;39717;47.324;8.788;2022-10-22T10:11:10;1.07;;;0.50;;
50815;SDS011;39717;47.324;8.788;2022-10-22T10:19:31;0.97;;;0.60;;
50815;SDS011;39717;47.324;8.788;2022-10-22T10:27:40;0.80;;;0.70;;
50815;SDS011;39717;47.324;8.788;2022-10-22T10:30:16;0.63;;;0.60;;
50815;SDS011;39717;47.324;8.788;2022-10-22T10:35:30;1.40;;;0.60;;
50815;SDS011;39717;47.324;8.788;2022-10-22T10:38:05;0.73;;;0.50;;
50815;SDS011;39717;47.324;8.788;2022-10-22T10:40:43;0.83;;;0.60;;
50815;SDS011;39717;47.324;8.788;2022-10-22T10:43:19;0.60;;;0.60;;
50815;SDS011;39717;47.324;8.788;2022-10-22T10:54:14;1.23;;;0.63;;
50815;SDS011;39717;47.324;8.788;2022-10-22T11:07:22;0.93;;;0.40;;
50815;SDS011;39717;47.324;8.788;2022-10-22T11:09:53;0.90;;;0.50;;
50815;SDS011;39717;47.324;8.788;2022-10-22T11:12:24;0.50;;;0.50;;
50815;SDS011;39717;47.324;8.788;2022-10-22T11:17:34;0.83;;;0.63;;
50815;SDS011;39717;47.324;8.788;2022-10-22T11:22:34;0.57;;;0.50;;
50815;SDS011;39717;47.324;8.788;2022-10-22T11:27:56;2.73;;;0.60;;
50815;SDS011;39717;47.324;8.788;2022-10-22T11:30:26;2.47;;;0.77;;
50815;SDS011;39717;47.324;8.788;2022-10-22T11:32:59;0.40;;;0.40;;
50815;SDS011;39717;47.324;8.788;2022-10-22T11:35:27;1.83;;;0.60;;
50815;SDS011;39717;47.324;8.788;2022-10-22T11:37:55;0.63;;;0.60;;
50815;SDS011;39717;47.324;8.788;2022-10-22T11:42:50;0.60;;;0.60;;
50815;SDS011;39717;47.324;8.788;2022-10-22T11:45:27;0.60;;;0.60;;
50815;SDS011;39717;47.324;8.788;2022-10-22T11:50:46;1.07;;;0.60;;
50815;SDS011;39717;47.324;8.788;2022-10-22T11:55:52;3.07;;;0.70;;
50815;SDS011;39717;47.324;8.788;2022-10-22T12:00:51;1.17;;;0.50;;
50815;SDS011;39717;47.324;8.788;2022-10-22T12:03:18;0.63;;;0.63;;
50815;SDS011;39717;47.324;8.788;2022-10-22T12:06:15;2.10;;;0.70;;
50815;SDS011;39717;47.324;8.788;2022-10-22T12:16:25;0.70;;;0.60;;
50815;SDS011;39717;47.324;8.788;2022-10-22T12:19:15;2.40;;;0.90;;
50815;SDS011;39717;47.324;8.788;2022-10-22T12:21:41;0.57;;;0.57;;
50815;SDS011;39717;47.324;8.788;2022-10-22T12:24:12;0.60;;;0.60;;
50815;SDS011;39717;47.324;8.788;2022-10-22T12:29:11;3.70;;;0.67;;
50815;SDS011;39717;47.324;8.788;2022-10-22T12:31:38;0.73;;;0.60;;
50815;SDS011;39717;47.324;8.788;2022-10-22T12:34:05;0.67;;;0.67;;
50815;SDS011;39717;47.324;8.788;2022-10-22T12:36:34;0.90;;;0.60;;
50815;SDS011;39717;47.324;8.788;2022-10-22T12:39:02;0.80;;;0.60;;
50815;SDS011;39717;47.324;8.788;2022-10-22T12:41:32;1.77;;;0.80;;
50815;SDS011;39717;47.324;8.788;2022-10-22T12:44:05;0.70;;;0.70;;
50815;SDS011;39717;47.324;8.788;2022-10-22T12:46:33;2.57;;;1.00;;
50815;SDS011;39717;47.324;8.788;2022-10-22T12:49:03;1.27;;;0.73;;
50815;SDS011;39717;47.324;8.788;2022-10-22T12:51:30;1.63;;;0.83;;
50815;SDS011;39717;47.324;8.788;2022-10-22T12:54:01;1.43;;;0.70;;
50815;SDS011;39717;47.324;8.788;2022-10-22T12:56:30;0.60;;;0.60;;
50815;SDS011;39717;47.324;8.788;2022-10-22T13:01:42;0.40;;;0.40;;
50815;SDS011;39717;47.324;8.788;2022-10-22T13:09:36;3.40;;;1.53;;
50815;SDS011;39717;47.324;8.788;2022-10-22T13:12:04;0.60;;;0.60;;
50815;SDS011;39717;47.324;8.788;2022-10-22T13:14:35;1.30;;;0.70;;
50815;SDS011;39717;47.324;8.788;2022-10-22T13:22:03;0.60;;;0.53;;
50815;SDS011;39717;47.324;8.788;2022-10-22T13:24:29;1.00;;;0.60;;
50815;SDS011;39717;47.324;8.788;2022-10-22T13:26:56;2.57;;;0.83;;
50815;SDS011;39717;47.324;8.788;2022-10-22T13:29:22;0.50;;;0.50;;
50815;SDS011;39717;47.324;8.788;2022-10-22T13:31:49;3.20;;;0.67;;
50815;SDS011;39717;47.324;8.788;2022-10-22T13:34:18;1.13;;;0.73;;
50815;SDS011;39717;47.324;8.788;2022-10-22T13:36:44;1.50;;;0.80;;
50815;SDS011;39717;47.324;8.788;2022-10-22T13:39:21;0.60;;;0.60;;
50815;SDS011;39717;47.324;8.788;2022-10-22T13:41:49;1.07;;;0.60;;
50815;SDS011;39717;47.324;8.788;2022-10-22T13:44:16;0.60;;;0.60;;
50815;SDS011;39717;47.324;8.788;2022-10-22T13:46:43;2.33;;;0.63;;
50815;SDS011;39717;47.324;8.788;2022-10-22T13:49:14;2.30;;;0.73;;
50815;SDS011;39717;47.324;8.788;2022-10-22T13:51:43;0.80;;;0.70;;
50815;SDS011;39717;47.324;8.788;2022-10-22T13:54:14;1.27;;;0.97;;
50815;SDS011;39717;47.324;8.788;2022-10-22T13:56:48;1.53;;;0.70;;
50815;SDS011;39717;47.324;8.788;2022-10-22T13:59:13;1.27;;;0.70;;
50815;SDS011;39717;47.324;8.788;2022-10-22T14:01:39;1.50;;;1.00;;
50815;SDS011;39717;47.324;8.788;2022-10-22T14:04:06;0.60;;;0.60;;
50815;SDS011;39717;47.324;8.788;2022-10-22T14:06:37;0.60;;;0.60;;
50815;SDS011;39717;47.324;8.788;2022-10-22T14:09:04;1.27;;;0.77;;
50815;SDS011;39717;47.324;8.788;2022-10-22T14:11:35;0.70;;;0.70;;
50815;SDS011;39717;47.324;8.788;2022-10-22T14:14:01;0.83;;;0.60;;
50815;SDS011;39717;47.324;8.788;2022-10-22T14:16:33;0.60;;;0.60;;
50815;SDS011;39717;47.324;8.788;2022-10-22T14:19:02;2.33;;;0.60;;
50815;SDS011;39717;47.324;8.788;2022-10-22T14:21:29;0.60;;;0.60;;
50815;SDS011;39717;47.324;8.788;2022-10-22T14:23:59;1.93;;;0.60;;
50815;SDS011;39717;47.324;8.788;2022-10-22T14:26:27;1.80;;;0.60;;
50815;SDS011;39717;47.324;8.788;2022-10-22T14:28:55;0.60;;;0.60;;
50815;SDS011;39717;47.324;8.788;2022-10-22T14:31:22;3.20;;;0.70;;
50815;SDS011;39717;47.324;8.788;2022-10-22T14:33:49;1.33;;;1.07;;
50815;SDS011;39717;47.324;8.788;2022-10-22T14:36:15;1.07;;;0.60;;
50815;SDS011;39717;47.324;8.788;2022-10-22T14:38:42;0.83;;;0.60;;
50815;SDS011;39717;47.324;8.788;2022-10-22T14:41:14;1.93;;;0.77;;
50815;SDS011;39717;47.324;8.788;2022-10-22T14:43:41;3.30;;;0.80;;
50815;SDS011;39717;47.324;8.788;2022-10-22T14:46:10;0.60;;;0.60;;
50815;SDS011;39717;47.324;8.788;2022-10-22T14:48:37;0.67;;;0.67;;
50815;SDS011;39717;47.324;8.788;2022-10-22T14:51:03;0.70;;;0.70;;
50815;SDS011;39717;47.324;8.788;2022-10-22T14:53:29;0.50;;;0.50;;
50815;SDS011;39717;47.324;8.788;2022-10-22T14:55:55;1.20;;;0.63;;
50815;SDS011;39717;47.324;8.788;2022-10-22T14:58:29;0.80;;;0.70;;
50815;SDS011;39717;47.324;8.788;2022-10-22T15:01:00;1.83;;;0.80;;
50815;SDS011;39717;47.324;8.788;2022-10-22T15:03:26;0.80;;;0.70;;
50815;SDS011;39717;47.324;8.788;2022-10-22T15:05:53;0.60;;;0.60;;
50815;SDS011;39717;47.324;8.788;2022-10-22T15:08:20;0.80;;;0.80;;
50815;SDS011;39717;47.324;8.788;2022-10-22T15:11:10;0.73;;;0.60;;
50815;SDS011;39717;47.324;8.788;2022-10-22T15:13:34;1.50;;;1.00;;
50815;SDS011;39717;47.324;8.788;2022-10-22T15:16:06;0.77;;;0.50;;
50815;SDS011;39717;47.324;8.788;2022-10-22T15:18:32;1.67;;;0.67;;
50815;SDS011;39717;47.324;8.788;2022-10-22T15:21:00;2.63;;;0.80;;
50815;SDS011;39717;47.324;8.788;2022-10-22T15:23:27;2.43;;;0.90;;
50815;SDS011;39717;47.324;8.788;2022-10-22T15:25:53;1.70;;;0.70;;
50815;SDS011;39717;47.324;8.788;2022-10-22T15:28:19;2.10;;;0.80;;
50815;SDS011;39717;47.324;8.788;2022-10-22T15:30:55;1.33;;;0.83;;
50815;SDS011;39717;47.324;8.788;2022-10-22T15:33:22;2.50;;;1.03;;
50815;SDS011;39717;47.324;8.788;2022-10-22T15:35:49;0.93;;;0.87;;
50815;SDS011;39717;47.324;8.788;2022-10-22T15:38:16;1.03;;;0.93;;
50815;SDS011;39717;47.324;8.788;2022-10-22T15:40:42;1.97;;;0.83;;
50815;SDS011;39717;47.324;8.788;2022-10-22T15:43:08;2.60;;;0.93;;
50815;SDS011;39717;47.324;8.788;2022-10-22T15:45:35;1.10;;;0.60;;
50815;SDS011;39717;47.324;8.788;2022-10-22T15:48:03;1.47;;;0.87;;
50815;SDS011;39717;47.324;8.788;2022-10-22T15:50:29;3.53;;;0.90;;
50815;SDS011;39717;47.324;8.788;2022-10-22T15:52:55;1.03;;;0.80;;
50815;SDS011;39717;47.324;8.788;2022-10-22T15:55:21;1.27;;;0.70;;
50815;SDS011;39717;47.324;8.788;2022-10-22T15:57:48;1.27;;;0.80;;
50815;SDS011;39717;47.324;8.788;2022-10-22T16:00:20;1.00;;;0.70;;
50815;SDS011;39717;47.324;8.788;2022-10-22T16:02:48;2.20;;;0.97;;
50815;SDS011;39717;47.324;8.788;2022-10-22T16:05:16;0.80;;;0.80;;
50815;SDS011;39717;47.324;8.788;2022-10-22T16:07:42;1.13;;;1.03;;
50815;SDS011;39717;47.324;8.788;2022-10-22T16:10:15;2.13;;;0.80;;
50815;SDS011;39717;47.324;8.788;2022-10-22T16:12:41;0.80;;;0.80;;
50815;SDS011;39717;47.324;8.788;2022-10-22T16:15:08;1.10;;;0.90;;
50815;SDS011;39717;47.324;8.788;2022-10-22T16:17:34;1.60;;;1.00;;
50815;SDS011;39717;47.324;8.788;2022-10-22T16:22:50;1.60;;;1.00;;
50815;SDS011;39717;47.324;8.788;2022-10-22T16:25:17;2.30;;;1.13;;
50815;SDS011;39717;47.324;8.788;2022-10-22T16:27:43;3.40;;;1.53;;
50815;SDS011;39717;47.324;8.788;2022-10-22T16:30:09;2.77;;;1.70;;
50815;SDS011;39717;47.324;8.788;2022-10-22T16:32:35;2.07;;;1.40;;
50815;SDS011;39717;47.324;8.788;2022-10-22T16:35:01;2.97;;;1.70;;
50815;SDS011;39717;47.324;8.788;2022-10-22T16:37:28;3.93;;;1.77;;
50815;SDS011;39717;47.324;8.788;2022-10-22T16:39:55;3.00;;;1.33;;
50815;SDS011;39717;47.324;8.788;2022-10-22T16:42:21;1.67;;;1.57;;
50815;SDS011;39717;47.324;8.788;2022-10-22T16:44:47;3.77;;;1.40;;
50815;SDS011;39717;47.324;8.788;2022-10-22T16:47:13;3.77;;;2.73;;
50815;SDS011;39717;47.324;8.788;2022-10-22T16:49:39;6.97;;;4.03;;
50815;SDS011;39717;47.324;8.788;2022-10-22T16:52:05;7.00;;;3.47;;
50815;SDS011;39717;47.324;8.788;2022-10-22T16:54:32;4.93;;;3.40;;
50815;SDS011;39717;47.324;8.788;2022-10-22T16:56:58;6.00;;;3.43;;
50815;SDS011;39717;47.324;8.788;2022-10-22T16:59:26;8.47;;;4.23;;
50815;SDS011;39717;47.324;8.788;2022-10-22T17:01:52;6.90;;;2.60;;
50815;SDS011;39717;47.324;8.788;2022-10-22T17:04:19;6.23;;;2.50;;
50815;SDS011;39717;47.324;8.788;2022-10-22T17:06:47;5.40;;;2.53;;
50815;SDS011;39717;47.324;8.788;2022-10-22T17:09:14;4.50;;;2.60;;
50815;SDS011;39717;47.324;8.788;2022-10-22T17:11:40;5.87;;;2.70;;
50815;SDS011;39717;47.324;8.788;2022-10-22T17:14:15;5.23;;;2.93;;
50815;SDS011;39717;47.324;8.788;2022-10-22T17:16:42;4.73;;;2.43;;
50815;SDS011;39717;47.324;8.788;2022-10-22T17:19:11;3.67;;;2.27;;
50815;SDS011;39717;47.324;8.788;2022-10-22T17:21:40;2.67;;;2.47;;
50815;SDS011;39717;47.324;8.788;2022-10-22T17:24:08;4.33;;;3.00;;